Time;durP1;ratioP1;P1;durP2;ratioP2;P2;SDS_P1;SDS_P2;PMS_P1;PMS_P2;Temp;Humidity;BMP_temperature;BMP_pressure;BME280_temperature;BME280_humidity;BME280_pressure;Samples;Min_cycle;Max_cycle;Signal;HPM_P1;HPM_P2
2023/12/14 00:04:05;;;;;;;39.60;12.18;;;;;;;5.74;69.32;98381.12;7738592;32;39296;-85
2023/12/14 00:08:21;;;;;;;22.73;10.70;;;;;;;5.45;70.14;98386.34;7738571;32;40747;-85
2023/12/14 00:12:37;;;;;;;19.40;10.00;;;;;;;5.39;70.36;98399.03;7738220;32;38691;-85
2023/12/14 00:16:53;;;;;;;57.83;10.65;;;;;;;5.67;69.54;98396.00;7738320;32;37226;-84
2023/12/14 00:21:10;;;;;;;46.70;12.13;;;;;;;5.64;69.58;98408.19;7738391;32;40045;-84
2023/12/14 00:25:26;;;;;;;53.03;12.57;;;;;;;5.36;71.22;98401.47;7728188;32;40059;-84
2023/12/14 00:29:43;;;;;;;55.10;11.30;;;;;;;5.55;70.58;98405.22;7711534;32;37743;-84
2023/12/14 00:33:59;;;;;;;89.50;12.77;;;;;;;5.56;70.50;98406.84;7711550;32;36946;-84
2023/12/14 00:38:15;;;;;;;204.25;18.45;;;;;;;5.52;70.79;98405.78;7711957;32;39908;-84
2023/12/14 00:42:32;;;;;;;60.40;12.95;;;;;;;4.84;73.62;98404.12;7711062;32;40814;-84
2023/12/14 00:46:48;;;;;;;57.17;14.68;;;;;;;5.28;72.03;98410.94;7711261;32;39247;-84
2023/12/14 00:51:05;;;;;;;70.45;14.00;;;;;;;5.50;71.75;98412.53;7711309;32;37706;-85
2023/12/14 00:55:21;;;;;;;139.62;15.93;;;;;;;5.68;70.92;98403.06;7718847;32;39345;-84
2023/12/14 00:59:38;;;;;;;69.53;13.35;;;;;;;5.71;70.49;98416.00;7720706;32;40086;-84
2023/12/14 01:03:54;;;;;;;263.48;19.10;;;;;;;5.71;70.87;98427.66;7712639;32;37941;-85
2023/12/14 01:08:10;;;;;;;53.20;12.02;;;;;;;5.58;70.74;98430.91;7728836;32;38064;-85
2023/12/14 01:12:27;;;;;;;49.47;12.43;;;;;;;5.91;70.17;98445.72;7727358;32;39789;-84
2023/12/14 01:16:43;;;;;;;78.87;13.65;;;;;;;6.05;69.40;98453.31;7733909;32;40193;-84
2023/12/14 01:21:00;;;;;;;53.83;12.23;;;;;;;5.63;71.14;98463.34;7732407;32;37994;-85
2023/12/14 01:25:16;;;;;;;24.80;11.48;;;;;;;5.83;70.41;98482.25;7732197;32;37173;-85
2023/12/14 01:29:32;;;;;;;37.15;10.50;;;;;;;5.72;70.89;98479.84;7735198;32;40114;-84
2023/12/14 01:33:49;;;;;;;27.50;12.10;;;;;;;5.35;73.27;98480.94;7736509;32;39723;-84
2023/12/14 01:38:05;;;;;;;29.23;12.23;;;;;;;5.05;74.11;98477.09;7737819;32;37930;-84
2023/12/14 01:42:22;;;;;;;29.63;11.73;;;;;;;5.23;73.85;98476.59;7710256;32;37182;-84
2023/12/14 01:46:38;;;;;;;26.33;11.23;;;;;;;5.89;71.59;98474.94;7710655;32;39926;-83
2023/12/14 01:50:55;;;;;;;30.05;12.20;;;;;;;5.58;72.64;98480.38;7709758;32;40902;-84
2023/12/14 01:55:13;;;;;;;29.98;13.07;;;;;;;5.64;73.17;98468.50;7710984;32;36958;-85
2023/12/14 01:59:29;;;;;;;70.55;13.40;;;;;;;5.06;75.06;98474.13;7737736;32;37604;-83
2023/12/14 02:03:50;;;;;;;79.72;13.40;;;;;;;5.72;72.42;98458.19;7745045;32;39350;-84
2023/12/14 02:08:07;;;;;;;184.68;17.77;;;;;;;5.64;72.18;98454.97;7729130;32;39911;-84
2023/12/14 02:12:23;;;;;;;214.82;19.10;;;;;;;5.71;72.34;98451.16;7714642;32;37816;-85
2023/12/14 02:16:40;;;;;;;400.00;24.90;;;;;;;5.73;72.02;98440.91;7736665;32;37279;-84
2023/12/14 02:20:56;;;;;;;153.07;17.83;;;;;;;5.93;70.78;98458.97;7736844;32;40107;-84
2023/12/14 02:25:12;;;;;;;181.35;16.70;;;;;;;5.69;71.70;98447.91;7711711;32;40027;-85
2023/12/14 02:29:29;;;;;;;360.80;25.23;;;;;;;5.50;72.71;98451.19;7712741;32;38145;-84
2023/12/14 02:33:45;;;;;;;201.88;18.50;;;;;;;5.47;72.11;98449.03;7724635;32;37028;-84
2023/12/14 02:38:01;;;;;;;490.40;29.10;;;;;;;5.70;71.74;98457.66;7738296;32;40062;-84
2023/12/14 02:42:18;;;;;;;234.23;20.52;;;;;;;5.18;73.37;98460.38;7728853;32;39967;-84
2023/12/14 02:46:34;;;;;;;272.15;21.25;;;;;;;4.91;74.42;98454.41;7728105;32;37892;-85
2023/12/14 02:50:50;;;;;;;138.73;16.77;;;;;;;5.08;73.97;98460.34;7712593;32;37909;-84
2023/12/14 02:55:07;;;;;;;336.10;25.95;;;;;;;5.36;73.02;98455.50;7733497;32;38933;-84
2023/12/14 02:59:23;;;;;;;134.35;17.48;;;;;;;5.16;73.49;98467.94;7737437;32;40872;-84
2023/12/14 03:03:40;;;;;;;207.80;20.65;;;;;;;5.42;72.67;98462.56;7739140;32;38871;-85
2023/12/14 03:07:56;;;;;;;197.50;19.05;;;;;;;5.28;73.22;98470.38;7723217;32;38013;-84
2023/12/14 03:12:12;;;;;;;400.00;26.50;;;;;;;5.29;73.38;98487.41;7736861;32;37753;-84
2023/12/14 03:16:29;;;;;;;371.05;25.35;;;;;;;5.33;73.16;98489.31;7728006;32;39599;-85
2023/12/14 03:20:45;;;;;;;433.38;25.23;;;;;;;5.44;73.09;98484.72;7737401;32;38773;-84
2023/12/14 03:25:02;;;;;;;415.90;27.10;;;;;;;5.33;73.44;98489.31;7719303;32;37425;-84
2023/12/14 03:29:21;;;;;;;486.90;31.52;;;;;;;5.37;73.72;98492.28;7713541;32;39458;-84
2023/12/14 03:33:37;;;;;;;442.00;28.33;;;;;;;5.08;74.99;98500.88;7733463;32;39602;-84
2023/12/14 03:37:53;;;;;;;330.48;23.55;;;;;;;5.27;73.44;98501.97;7721988;32;37985;-83
2023/12/14 03:42:10;;;;;;;277.62;22.02;;;;;;;5.61;72.64;98506.87;7715663;32;37232;-84
2023/12/14 03:46:26;;;;;;;401.42;27.95;;;;;;;5.42;72.70;98508.50;7712130;32;37651;-83
2023/12/14 03:50:42;;;;;;;42.92;13.95;;;;;;;5.82;71.67;98518.50;7727131;32;39966;-89
2023/12/14 03:54:59;;;;;;;188.02;17.08;;;;;;;5.50;72.79;98520.66;7728533;32;38621;-83
2023/12/14 03:59:15;;;;;;;156.70;17.83;;;;;;;5.74;72.02;98529.84;7750017;32;37226;-88
2023/12/14 04:03:32;;;;;;;244.05;21.73;;;;;;;5.91;71.57;98520.66;7722188;32;40083;-88
2023/12/14 04:07:48;;;;;;;245.32;22.92;;;;;;;5.38;73.53;98537.97;7711796;32;40036;-89
2023/12/14 04:12:05;;;;;;;87.18;14.90;;;;;;;4.76;75.81;98539.69;7711356;32;37647;-88
2023/12/14 04:16:22;;;;;;;191.43;19.75;;;;;;;5.07;74.77;98539.75;7711675;32;37309;-89
2023/12/14 04:20:41;;;;;;;162.93;17.48;;;;;;;5.11;73.83;98540.88;7711109;32;38925;-89
2023/12/14 04:24:57;;;;;;;98.43;16.08;;;;;;;5.44;73.36;98549.59;7711511;32;39901;-88
2023/12/14 04:29:14;;;;;;;25.88;12.88;;;;;;;5.39;72.19;98552.28;7711432;32;37942;-87
2023/12/14 04:33:31;;;;;;;29.20;12.95;;;;;;;5.07;74.27;98561.37;7711450;32;37221;-87
2023/12/14 04:37:48;;;;;;;33.83;13.65;;;;;;;5.10;74.88;98577.06;7725223;32;39337;-87
2023/12/14 04:42:04;;;;;;;136.60;17.15;;;;;;;5.59;73.16;98589.34;7738012;32;40876;-88
2023/12/14 04:46:21;;;;;;;67.05;14.70;;;;;;;5.00;74.94;98599.47;7738038;32;37594;-89
2023/12/14 04:50:37;;;;;;;53.63;14.55;;;;;;;5.28;74.06;98600.09;7738189;32;37094;-88
2023/12/14 04:54:53;;;;;;;63.42;15.52;;;;;;;5.13;74.86;98606.25;7727170;32;39315;-88
2023/12/14 04:59:09;;;;;;;35.72;13.50;;;;;;;5.12;75.03;98610.03;7711167;32;40111;-88
2023/12/14 05:03:26;;;;;;;44.70;15.52;;;;;;;5.42;73.59;98608.50;7711089;32;37713;-88
2023/12/14 05:07:42;;;;;;;180.63;18.00;;;;;;;5.42;73.95;98617.41;7711070;32;37304;-88
2023/12/14 05:11:58;;;;;;;135.75;15.48;;;;;;;5.45;73.55;98619.59;7710853;32;40081;-89
2023/12/14 05:16:15;;;;;;;187.98;19.70;;;;;;;5.92;71.94;98616.97;7710766;32;40530;-89
2023/12/14 05:20:31;;;;;;;68.57;15.52;;;;;;;5.62;72.04;98632.06;7710772;32;38130;-88
2023/12/14 05:24:48;;;;;;;299.20;23.85;;;;;;;5.23;74.13;98617.09;7710708;32;37244;-89
2023/12/14 05:29:04;;;;;;;225.70;21.55;;;;;;;5.65;72.62;98626.91;7709507;32;39269;-89
2023/12/14 05:33:20;;;;;;;232.55;23.38;;;;;;;5.75;72.31;98634.25;7710772;32;40954;-88
2023/12/14 05:37:38;;;;;;;224.62;22.23;;;;;;;5.77;72.34;98639.41;7724447;32;37595;-88
2023/12/14 05:41:55;;;;;;;34.10;16.12;;;;;;;5.84;71.45;98645.34;7725085;32;37828;-88
2023/12/14 05:46:21;;;;;;;270.85;23.62;;;;;;;6.05;70.84;98643.50;7710411;32;39831;-88
2023/12/14 05:50:37;;;;;;;230.37;22.17;;;;;;;6.08;70.97;98653.78;7724082;32;39619;-87
2023/12/14 05:54:54;;;;;;;209.43;22.40;;;;;;;6.05;70.44;98645.41;7736824;32;38607;-87
2023/12/14 05:59:13;;;;;;;399.37;27.15;;;;;;;5.76;71.91;98667.50;7736736;32;37713;-88
2023/12/14 06:03:31;;;;;;;286.25;30.98;;;;;;;5.97;70.78;98666.50;7736817;32;40276;-86
2023/12/14 06:07:47;;;;;;;507.40;38.55;;;;;;;5.38;73.41;98680.38;7736442;32;40199;-87
2023/12/14 06:12:04;;;;;;;75.72;19.60;;;;;;;5.69;71.84;98685.88;7735902;32;37938;-87
2023/12/14 06:16:21;;;;;;;345.85;27.20;;;;;;;6.07;70.75;98673.81;7736352;32;37668;-88
2023/12/14 06:20:37;;;;;;;435.95;30.15;;;;;;;6.23;70.00;98674.66;7736168;32;39414;-88
2023/12/14 06:24:53;;;;;;;223.87;25.20;;;;;;;6.15;70.09;98675.16;7736125;32;40043;-88
2023/12/14 06:29:11;;;;;;;234.62;24.33;;;;;;;6.16;70.30;98680.31;7735666;32;38051;-87
2023/12/14 06:33:27;;;;;;;72.90;18.27;;;;;;;6.46;68.92;98684.09;7735867;32;37385;-87
2023/12/14 06:37:44;;;;;;;35.08;18.08;;;;;;;6.00;70.57;98684.91;7735459;32;39245;-88
2023/12/14 06:42:00;;;;;;;35.92;17.35;;;;;;;6.10;70.46;98686.00;7737531;32;40028;-89
2023/12/14 06:46:16;;;;;;;36.13;17.90;;;;;;;6.12;70.53;98702.75;7726980;32;38443;-88
2023/12/14 06:50:34;;;;;;;37.58;18.73;;;;;;;6.35;69.68;98713.06;7712792;32;37707;-87
2023/12/14 06:54:50;;;;;;;38.42;19.02;;;;;;;5.83;71.11;98723.00;7712623;32;39238;-88
2023/12/14 06:59:06;;;;;;;46.08;20.20;;;;;;;6.00;70.84;98720.09;7713000;32;39937;-90
2023/12/14 07:03:23;;;;;;;39.45;18.42;;;;;;;5.89;71.10;98723.00;7712554;32;37728;-90
2023/12/14 07:07:39;;;;;;;59.15;19.50;;;;;;;6.01;70.79;98721.69;7712651;32;37123;-90
2023/12/14 07:11:55;;;;;;;39.97;18.48;;;;;;;6.06;70.72;98733.63;7712518;32;39982;-90
2023/12/14 07:16:12;;;;;;;42.62;18.95;;;;;;;6.25;70.12;98737.44;7712337;32;39874;-89
2023/12/14 07:20:28;;;;;;;48.47;17.33;;;;;;;6.37;69.65;98740.69;7712489;32;38709;-90
2023/12/14 07:24:45;;;;;;;38.75;19.10;;;;;;;6.32;69.65;98751.50;7712377;32;37786;-90
2023/12/14 07:29:11;;;;;;;34.90;18.50;;;;;;;6.00;70.75;98757.97;7712441;32;38997;-91
2023/12/14 07:33:27;;;;;;;37.40;17.77;;;;;;;6.07;70.54;98762.28;7712025;32;40802;-89
2023/12/14 07:37:44;;;;;;;38.20;18.40;;;;;;;5.65;72.31;98772.94;7734075;32;38081;-89
2023/12/14 07:42:00;;;;;;;33.90;17.20;;;;;;;5.93;71.62;98783.59;7729669;32;37742;-88
2023/12/14 07:46:16;;;;;;;32.30;16.87;;;;;;;6.09;71.28;98787.19;7712170;32;40244;-86
2023/12/14 07:50:33;;;;;;;36.03;17.05;;;;;;;6.11;71.74;98793.16;7712075;32;39746;-86
2023/12/14 07:54:49;;;;;;;31.87;16.00;;;;;;;6.14;70.64;98795.31;7711086;32;37515;-83
2023/12/14 07:59:07;;;;;;;34.45;17.45;;;;;;;6.14;70.90;98798.03;7733033;32;38097;-83
2023/12/14 08:03:23;;;;;;;30.45;15.68;;;;;;;5.83;71.88;98814.94;7720149;32;38722;-83
2023/12/14 08:07:40;;;;;;;29.70;15.52;;;;;;;6.01;71.22;98819.09;7711898;32;40808;-84
2023/12/14 08:11:56;;;;;;;30.88;15.48;;;;;;;6.22;71.05;98827.28;7713385;32;38071;-88
2023/12/14 08:16:12;;;;;;;26.02;14.85;;;;;;;6.36;70.16;98836.53;7711736;32;37370;-85
2023/12/14 08:20:29;;;;;;;28.30;13.98;;;;;;;5.82;72.03;98847.66;7711625;32;39313;-85
2023/12/14 08:24:45;;;;;;;21.67;11.73;;;;;;;6.36;70.45;98850.06;7711675;32;40965;-73
2023/12/14 08:29:01;;;;;;;27.27;14.75;;;;;;;6.29;72.07;98854.09;7711615;32;38921;-87
2023/12/14 08:33:18;;;;;;;25.62;14.23;;;;;;;6.48;71.45;98855.22;7711659;32;37927;-85
2023/12/14 08:37:36;;;;;;;24.02;13.43;;;;;;;6.63;73.35;98859.84;7718902;32;39308;-85
2023/12/14 08:41:53;;;;;;;24.95;14.32;;;;;;;6.49;71.40;98867.69;7728510;32;40486;-85
2023/12/14 08:46:10;;;;;;;26.12;14.77;;;;;;;6.80;69.66;98858.81;7729853;32;37985;-84
2023/12/14 08:50:26;;;;;;;23.80;14.07;;;;;;;6.32;70.50;98877.94;7715724;32;37191;-84
2023/12/14 08:54:44;;;;;;;29.05;13.82;;;;;;;6.13;70.84;98891.13;7715692;32;39403;-86
2023/12/14 08:59:03;;;;;;;25.15;13.75;;;;;;;6.08;71.96;98891.09;7721925;32;40027;-87
2023/12/14 09:03:20;;;;;;;28.23;14.13;;;;;;;6.09;71.82;98898.13;7729441;32;38605;-87
2023/12/14 09:07:37;;;;;;;26.02;14.52;;;;;;;6.46;70.05;98897.19;7733953;32;37880;-83
2023/12/14 09:11:53;;;;;;;24.30;13.10;;;;;;;6.25;70.73;98899.03;7736864;32;39447;-87
2023/12/14 09:16:10;;;;;;;26.85;14.82;;;;;;;6.19;71.19;98907.12;7736642;32;40721;-89
2023/12/14 09:20:28;;;;;;;28.27;14.38;;;;;;;6.01;71.97;98902.16;7737076;32;38609;-85
2023/12/14 09:24:45;;;;;;;23.75;13.32;;;;;;;6.17;71.21;98903.03;7734673;32;37435;-87
2023/12/14 09:29:02;;;;;;;24.17;13.62;;;;;;;6.44;70.29;98911.00;7734726;32;39296;-87
2023/12/14 09:33:20;;;;;;;24.00;13.40;;;;;;;6.35;70.44;98912.59;7743076;32;38883;-83
2023/12/14 09:37:36;;;;;;;27.17;12.45;;;;;;;6.12;70.40;98919.25;7745077;32;38265;-87
2023/12/14 09:42:01;;;;;;;25.00;13.15;;;;;;;6.47;69.57;98920.47;7715888;32;37760;-87
2023/12/14 09:46:17;;;;;;;22.83;12.07;;;;;;;6.35;70.35;98926.13;7713352;32;40416;-88
2023/12/14 09:50:34;;;;;;;28.85;12.93;;;;;;;6.35;70.46;98932.34;7721579;32;39935;-87
2023/12/14 09:54:51;;;;;;;21.92;12.00;;;;;;;6.42;70.09;98928.59;7710167;32;37677;-86
2023/12/14 09:59:11;;;;;;;25.23;12.98;;;;;;;6.28;70.18;98931.78;7710300;32;38021;-86
2023/12/14 10:03:31;;;;;;;23.73;12.95;;;;;;;6.50;70.07;98944.31;7713125;32;39031;-86
2023/12/14 10:07:48;;;;;;;21.05;12.02;;;;;;;6.97;68.50;98946.06;7736278;32;40442;-85
2023/12/14 10:12:08;;;;;;;20.92;11.23;;;;;;;6.84;68.73;98949.28;7736290;32;37927;-85
2023/12/14 10:16:43;;;;;;;23.83;12.55;;;;;;;7.07;67.37;98953.38;7737651;32;37758;-87
2023/12/14 10:20:59;;;;;;;25.10;12.77;;;;;;;7.15;67.27;98955.56;7739932;32;39014;-84
2023/12/14 10:25:17;;;;;;;18.33;11.43;;;;;;;6.86;67.60;98964.19;7739765;32;40899;-86
2023/12/14 10:29:35;;;;;;;19.87;11.38;;;;;;;7.00;67.70;98969.91;7739826;32;36793;-88
2023/12/14 10:33:51;;;;;;;20.50;11.45;;;;;;;7.29;66.96;98966.69;7737683;32;37084;-84
2023/12/14 10:38:09;;;;;;;21.12;12.27;;;;;;;7.50;67.53;98979.19;7737602;32;39316;-86
2023/12/14 10:42:27;;;;;;;21.45;11.40;;;;;;;7.24;67.16;98977.53;7751078;32;39262;-84
2023/12/14 10:46:52;;;;;;;21.80;11.32;;;;;;;7.37;67.13;98977.00;7750844;32;37595;-84
2023/12/14 10:51:08;;;;;;;;;;;;;;;7.36;67.59;98983.50;7751125;32;37253;-88
2023/12/14 10:55:38;;;;;;;20.02;10.88;;;;;;;7.31;67.92;98980.78;7739019;32;39379;-86
2023/12/14 11:00:06;;;;;;;18.92;10.60;;;;;;;7.57;67.42;98984.34;7750182;32;39971;-84
2023/12/14 11:04:22;;;;;;;23.70;12.00;;;;;;;7.19;68.58;98986.47;7739408;32;37893;-84
2023/12/14 11:08:39;;;;;;;21.12;11.12;;;;;;;7.37;68.68;98990.56;7739299;32;37435;-83
2023/12/14 11:13:10;;;;;;;20.23;11.07;;;;;;;7.14;68.70;99008.97;7739206;32;39086;-83
2023/12/14 11:17:29;;;;;;;18.90;10.55;;;;;;;7.44;67.84;99010.09;7736771;32;40601;-84
2023/12/14 11:21:45;;;;;;;23.50;11.35;;;;;;;7.07;68.73;99023.84;7712222;32;38032;-83
2023/12/14 11:26:20;;;;;;;19.48;11.18;;;;;;;7.21;68.60;99019.56;7712392;32;37193;-83
2023/12/14 11:30:37;;;;;;;20.58;11.43;;;;;;;7.40;68.54;99013.59;7711800;32;39324;-83
2023/12/14 11:35:12;;;;;;;21.75;10.73;;;;;;;7.26;69.21;99029.59;7712345;32;39998;-83
2023/12/14 11:39:32;;;;;;;20.52;11.35;;;;;;;7.20;69.06;99036.09;7712038;32;37910;-84
2023/12/14 11:43:48;;;;;;;24.30;11.82;;;;;;;7.47;68.60;99033.97;7723478;32;37974;-84
2023/12/14 11:48:06;;;;;;;20.48;11.55;;;;;;;7.81;67.99;99038.03;7712091;32;40192;-84
2023/12/14 11:52:22;;;;;;;17.67;10.20;;;;;;;8.17;67.38;99033.37;7711867;32;39985;-84
2023/12/14 11:56:39;;;;;;;20.12;9.85;;;;;;;7.95;67.66;99043.72;7711862;32;37725;-84
2023/12/14 12:00:55;;;;;;;19.83;11.95;;;;;;;8.04;67.16;99047.53;7711762;32;37009;-84
2023/12/14 12:05:13;;;;;;;17.60;10.23;;;;;;;8.07;68.07;99041.53;7711654;32;39367;-83
2023/12/14 12:09:38;;;;;;;16.85;10.15;;;;;;;8.23;66.86;99045.88;7711927;32;39332;-84
2023/12/14 12:13:57;;;;;;;17.58;10.15;;;;;;;7.83;68.04;99047.56;7711749;32;37529;-84
2023/12/14 12:18:16;;;;;;;21.85;9.88;;;;;;;8.47;66.44;99050.75;7710312;32;37938;-84
2023/12/14 12:22:33;;;;;;;21.15;10.23;;;;;;;8.38;66.80;99053.19;7710891;32;40139;-84
2023/12/14 12:26:50;;;;;;;20.33;10.18;;;;;;;8.58;66.78;99062.41;7711594;32;40750;-84
2023/12/14 12:31:06;;;;;;;18.98;10.68;;;;;;;8.64;66.56;99059.41;7711537;32;37968;-83
2023/12/14 12:35:24;;;;;;;22.10;10.40;;;;;;;8.48;66.63;99068.66;7711536;32;36947;-84
2023/12/14 12:39:40;;;;;;;19.12;9.15;;;;;;;8.96;64.62;99068.25;7722452;32;39790;-84
2023/12/14 12:43:57;;;;;;;20.23;9.82;;;;;;;8.57;65.88;99071.63;7711523;32;40185;-84
2023/12/14 12:48:14;;;;;;;22.65;10.30;;;;;;;8.49;66.21;99078.44;7711888;32;38065;-84
2023/12/14 12:52:30;;;;;;;22.33;10.70;;;;;;;7.97;68.07;99079.56;7711375;32;37399;-84
2023/12/14 12:56:48;;;;;;;18.65;10.05;;;;;;;8.11;67.62;99080.66;7711351;32;39227;-84
2023/12/14 13:01:04;;;;;;;19.02;10.02;;;;;;;7.90;68.24;99083.38;7711187;32;40000;-84
2023/12/14 13:05:22;;;;;;;19.70;10.38;;;;;;;8.37;66.80;99084.16;7711173;32;38428;-84
2023/12/14 13:09:39;;;;;;;18.27;9.75;;;;;;;8.11;67.25;99102.37;7711322;32;36818;-84
2023/12/14 13:13:55;;;;;;;18.83;9.68;;;;;;;7.67;68.32;99114.53;7704989;32;195199;-84
2023/12/14 13:18:12;;;;;;;18.83;10.63;;;;;;;7.81;67.90;99114.84;7710953;32;40214;-84
2023/12/14 13:22:28;;;;;;;23.17;10.20;;;;;;;8.22;67.36;99114.84;7710887;32;38602;-84
2023/12/14 13:26:46;;;;;;;18.80;10.38;;;;;;;8.15;67.77;99119.72;7710799;32;37311;-84
2023/12/14 13:31:03;;;;;;;21.52;9.80;;;;;;;7.77;68.55;99132.75;7711035;32;40363;-83
2023/12/14 13:35:19;;;;;;;20.95;10.32;;;;;;;8.37;66.49;99129.50;7710738;32;40840;-84
2023/12/14 13:39:37;;;;;;;17.17;9.32;;;;;;;8.63;65.86;99135.75;7710498;32;37832;-84
2023/12/14 13:43:54;;;;;;;19.45;9.90;;;;;;;8.70;65.74;99141.69;7710583;32;37209;-84
2023/12/14 13:48:10;;;;;;;18.85;10.77;;;;;;;8.73;65.45;99152.03;7710533;32;40018;-84
2023/12/14 13:52:27;;;;;;;16.23;8.98;;;;;;;8.69;65.32;99156.38;7720547;32;39714;-84
2023/12/14 13:56:46;;;;;;;17.60;9.68;;;;;;;8.89;64.45;99160.97;7709052;32;37890;-84
2023/12/14 14:01:03;;;;;;;18.52;9.88;;;;;;;8.55;65.59;99168.91;7710190;32;36981;-84
2023/12/14 14:05:19;;;;;;;21.40;9.88;;;;;;;8.53;65.80;99185.47;7710096;32;40053;-84
2023/12/14 14:09:36;;;;;;;16.40;9.68;;;;;;;8.84;64.73;99196.31;7709795;32;40876;-84
2023/12/14 14:13:53;;;;;;;16.87;9.32;;;;;;;8.74;65.19;99204.47;7709606;32;38685;-84
2023/12/14 14:18:09;;;;;;;18.58;9.77;;;;;;;8.53;65.61;99209.13;7709732;32;37898;-84
2023/12/14 14:22:26;;;;;;;18.85;10.23;;;;;;;8.84;64.83;99207.19;7709754;32;39371;-84
2023/12/14 14:26:42;;;;;;;16.12;9.10;;;;;;;8.75;65.13;99230.56;7709358;32;40039;-84
2023/12/14 14:30:59;;;;;;;19.30;10.40;;;;;;;8.89;64.72;99228.09;7709387;32;38837;-84
2023/12/14 14:35:15;;;;;;;21.62;10.18;;;;;;;8.63;64.87;99237.09;7709239;32;37744;-84
2023/12/14 14:39:32;;;;;;;17.85;9.25;;;;;;;8.79;64.79;99221.56;7709147;32;39281;-84
2023/12/14 14:43:52;;;;;;;18.17;10.25;;;;;;;8.78;64.70;99235.47;7709062;32;40719;-83
2023/12/14 14:48:08;;;;;;;17.65;9.43;;;;;;;8.21;66.57;99254.44;7708471;32;37887;-84
2023/12/14 14:52:25;;;;;;;18.00;10.00;;;;;;;8.50;65.86;99267.50;7708940;32;36832;-83
2023/12/14 14:56:42;;;;;;;20.83;10.43;;;;;;;7.82;68.18;99273.88;7725947;32;39361;-84
2023/12/14 15:00:59;;;;;;;21.17;10.48;;;;;;;7.40;69.71;99288.34;7733147;32;40486;-84
2023/12/14 15:05:15;;;;;;;19.55;9.85;;;;;;;7.91;68.05;99290.44;7737306;32;38342;-84
2023/12/14 15:09:32;;;;;;;20.88;10.95;;;;;;;8.30;66.33;99290.03;7738976;32;37362;-83
2023/12/14 15:13:48;;;;;;;23.92;10.73;;;;;;;8.35;66.37;99297.38;7750452;32;39896;-82
2023/12/14 15:18:05;;;;;;;17.48;10.40;;;;;;;8.56;65.29;99304.47;7738084;32;40810;-83
2023/12/14 15:22:22;;;;;;;19.33;10.40;;;;;;;8.50;65.09;99315.59;7738923;32;37857;-83
2023/12/14 15:26:38;;;;;;;18.33;9.95;;;;;;;8.18;65.86;99314.69;7738033;32;37416;-82
2023/12/14 15:30:55;;;;;;;22.80;9.98;;;;;;;8.15;65.80;99326.09;7738719;32;40371;-83
2023/12/14 15:35:11;;;;;;;16.27;8.77;;;;;;;7.82;66.38;99330.06;7738625;32;39586;-83
2023/12/14 15:39:28;;;;;;;16.42;9.23;;;;;;;8.08;65.81;99339.91;7737989;32;37882;-83
2023/12/14 15:43:45;;;;;;;17.85;9.13;;;;;;;8.04;65.91;99346.97;7738808;32;38059;-83
2023/12/14 15:48:01;;;;;;;14.50;8.75;;;;;;;7.91;66.40;99352.87;7737969;32;39819;-83
2023/12/14 15:52:18;;;;;;;18.40;9.45;;;;;;;7.10;69.75;99356.72;7738503;32;40787;-83
2023/12/14 15:56:34;;;;;;;16.75;8.65;;;;;;;7.55;67.93;99357.31;7737501;32;38573;-83
2023/12/14 16:00:51;;;;;;;22.35;9.88;;;;;;;8.00;66.04;99358.63;7738043;32;37778;-83
2023/12/14 16:05:08;;;;;;;16.90;8.63;;;;;;;8.09;65.60;99370.63;7738168;32;40130;-83
2023/12/14 16:09:24;;;;;;;14.55;8.48;;;;;;;8.03;65.21;99387.94;7737509;32;40057;-83
2023/12/14 16:13:41;;;;;;;17.92;10.57;;;;;;;7.96;66.14;99392.81;7737357;32;37530;-83
2023/12/14 16:17:57;;;;;;;17.87;9.90;;;;;;;7.74;66.77;99393.75;7737215;32;37267;-83
2023/12/14 16:22:14;;;;;;;17.37;9.73;;;;;;;8.11;65.36;99411.06;7737945;32;39399;-83
2023/12/14 16:26:31;;;;;;;18.23;9.13;;;;;;;8.13;65.12;99419.78;7737883;32;40875;-83
2023/12/14 16:30:48;;;;;;;18.48;9.63;;;;;;;7.46;66.80;99430.22;7737315;32;37783;-83
2023/12/14 16:35:05;;;;;;;20.35;10.48;;;;;;;7.20;68.05;99440.84;7738004;32;37190;-82
2023/12/14 16:39:21;;;;;;;19.33;11.00;;;;;;;7.48;67.42;99447.03;7737366;32;39002;-82
2023/12/14 16:43:38;;;;;;;18.17;10.65;;;;;;;7.22;67.16;99456.88;7737975;32;39889;-83
2023/12/14 16:47:54;;;;;;;20.58;10.48;;;;;;;7.56;66.46;99462.03;7737017;32;38649;-83
2023/12/14 16:52:10;;;;;;;18.50;10.48;;;;;;;7.50;66.53;99467.41;7737465;32;37229;-83
2023/12/14 16:56:32;;;;;;;17.92;10.10;;;;;;;7.47;66.36;99478.78;7737534;32;39980;-83
2023/12/14 17:00:51;;;;;;;18.80;9.70;;;;;;;7.48;65.81;99480.41;7736080;32;41042;-83
2023/12/14 17:05:09;;;;;;;18.48;10.05;;;;;;;7.56;65.37;99486.44;7737696;32;37603;-83
2023/12/14 17:09:29;;;;;;;19.60;10.27;;;;;;;6.99;67.13;99498.69;7737076;32;37216;-83
2023/12/14 17:13:49;;;;;;;23.95;10.75;;;;;;;7.42;65.96;99503.16;7737566;32;39238;-83
2023/12/14 17:18:05;;;;;;;15.80;8.90;;;;;;;7.75;64.53;99512.09;7737437;32;38694;-83
2023/12/14 17:22:21;;;;;;;19.85;10.00;;;;;;;7.70;64.52;99520.19;7737104;32;38834;-83
2023/12/14 17:26:38;;;;;;;19.50;10.50;;;;;;;7.26;66.17;99531.19;7737247;32;37040;-83
2023/12/14 17:30:54;;;;;;;21.87;10.13;;;;;;;7.77;63.98;99531.66;7735629;32;40059;-83
2023/12/14 17:35:11;;;;;;;21.25;9.75;;;;;;;7.64;64.03;99549.19;7736977;32;39634;-83
2023/12/14 17:39:27;;;;;;;20.48;10.45;;;;;;;7.17;65.53;99557.13;7736451;32;37921;-83
2023/12/14 17:43:44;;;;;;;16.77;9.45;;;;;;;7.19;65.49;99566.63;7736808;32;37241;-83
2023/12/14 17:48:00;;;;;;;17.52;10.27;;;;;;;7.25;64.97;99568.34;7736916;32;40176;-83
2023/12/14 17:52:17;;;;;;;18.75;9.50;;;;;;;7.11;65.43;99573.34;7736336;32;41192;-83
2023/12/14 17:56:33;;;;;;;18.20;9.52;;;;;;;7.11;65.53;99591.50;7722723;32;38143;-83
2023/12/14 18:00:51;;;;;;;46.53;24.02;;;;;;;7.27;65.05;99597.91;7717165;32;37059;-83
2023/12/14 18:05:08;;;;;;;19.70;9.60;;;;;;;6.85;66.69;99617.50;7721302;32;39350;-85
2023/12/14 18:09:25;;;;;;;18.25;11.18;;;;;;;7.16;65.44;99605.13;7733554;32;39696;-84
2023/12/14 18:13:41;;;;;;;18.35;10.25;;;;;;;6.64;67.14;99624.50;7735794;32;38610;-84
2023/12/14 18:18:03;;;;;;;15.88;9.95;;;;;;;6.31;68.37;99635.16;7735880;32;36929;-83
2023/12/14 18:22:23;;;;;;;21.30;10.65;;;;;;;6.84;66.59;99632.09;7735556;32;39744;-84
2023/12/14 18:26:40;;;;;;;19.25;10.57;;;;;;;7.00;65.93;99647.47;7732236;32;39900;-83
2023/12/14 18:30:57;;;;;;;19.90;10.88;;;;;;;6.77;66.35;99649.34;7735180;32;37926;-82
2023/12/14 18:35:13;;;;;;;21.58;12.13;;;;;;;6.83;66.47;99666.50;7724612;32;37280;-82
2023/12/14 18:39:30;;;;;;;20.20;10.20;;;;;;;6.80;66.33;99679.75;7725093;32;39320;-82
2023/12/14 18:43:47;;;;;;;20.90;11.60;;;;;;;6.99;65.46;99678.38;7739671;32;40002;-82
2023/12/14 18:48:03;;;;;;;22.92;10.80;;;;;;;6.87;66.19;99702.06;7738160;32;37563;-84
2023/12/14 18:52:20;;;;;;;33.40;13.77;;;;;;;6.57;67.57;99695.09;7739596;32;37960;-83
2023/12/14 18:56:37;;;;;;;22.02;12.93;;;;;;;5.99;69.17;99714.19;7739812;32;39061;-84
2023/12/14 19:00:53;;;;;;;22.48;12.98;;;;;;;6.54;67.09;99720.00;7739263;32;40858;-82
2023/12/14 19:05:10;;;;;;;23.90;11.43;;;;;;;6.06;69.11;99734.91;7739324;32;37951;-82
2023/12/14 19:09:27;;;;;;;20.05;12.00;;;;;;;6.79;67.07;99737.72;7738821;32;36936;-83
2023/12/14 19:13:44;;;;;;;24.50;13.35;;;;;;;6.52;67.38;99746.47;7739217;32;39292;-84
2023/12/14 19:18:00;;;;;;;22.92;13.15;;;;;;;6.81;66.86;99746.41;7739142;32;40823;-82
2023/12/14 19:22:17;;;;;;;23.15;12.95;;;;;;;6.29;68.51;99751.00;7726595;32;37895;-83
2023/12/14 19:26:33;;;;;;;22.23;12.57;;;;;;;6.36;68.23;99746.25;7737404;32;37722;-84
2023/12/14 19:30:49;;;;;;;25.73;13.70;;;;;;;6.73;67.06;99756.59;7718099;32;40129;-82
2023/12/14 19:35:06;;;;;;;28.27;13.45;;;;;;;6.61;67.25;99766.69;7727045;32;39879;-82
2023/12/14 19:39:23;;;;;;;24.90;13.50;;;;;;;6.60;67.12;99770.47;7732453;32;37889;-88
2023/12/14 19:43:47;;;;;;;23.52;12.93;;;;;;;6.86;65.84;99781.72;7722378;32;37948;-83
2023/12/14 19:48:05;;;;;;;21.58;12.40;;;;;;;6.45;67.04;99789.16;7735665;32;39597;-83
2023/12/14 19:52:22;;;;;;;23.95;13.68;;;;;;;6.89;65.80;99803.72;7737802;32;39877;-85
2023/12/14 19:56:38;;;;;;;30.83;17.27;;;;;;;6.87;65.67;99799.62;7737731;32;38751;-84